Airport View

Enter AWOS ICAO identifier for current METAR.

ex. KFNL

KSEM 171205Z AUTO 00000KT 10SM 00/M01 A3007 RMK AO2

17 Nov 2019 12:04

Frequency: 119.15

Phone: (334) 872-9090

Other Area AWOS: KA08 - K1A9 - KMGM - KMXF

TAF KMGM 171120Z 1712/1812 VRB03KT P6SM BKN035 TEMPO 1713/1716 BKN025 FM171800 29005KT P6SM SCT035 BKN250